sensor_id;sensor_type;location;lat;lon;timestamp;pressure;altitude;pressure_sealevel;temperature;humidity
44751;BME280;30477;48.224;11.470;2022-08-21T00:02:19;96156.31;;;17.75;78.39
44751;BME280;30477;48.224;11.470;2022-08-21T00:04:45;96153.34;;;17.63;77.59
44751;BME280;30477;48.224;11.470;2022-08-21T00:07:12;96156.25;;;17.54;77.87
44751;BME280;30477;48.224;11.470;2022-08-21T00:09:38;96165.09;;;17.53;78.24
44751;BME280;30477;48.224;11.470;2022-08-21T00:12:04;96157.16;;;17.46;78.28
44751;BME280;30477;48.224;11.470;2022-08-21T00:14:30;96155.97;;;17.49;78.25
44751;BME280;30477;48.224;11.470;2022-08-21T00:16:56;96164.53;;;17.42;78.56
44751;BME280;30477;48.224;11.470;2022-08-21T00:19:21;96162.56;;;17.44;78.50
44751;BME280;30477;48.224;11.470;2022-08-21T00:21:53;96160.13;;;17.43;78.48
44751;BME280;30477;48.224;11.470;2022-08-21T00:24:20;96161.28;;;17.40;78.36
44751;BME280;30477;48.224;11.470;2022-08-21T00:26:46;96154.16;;;17.34;78.25
44751;BME280;30477;48.224;11.470;2022-08-21T00:29:13;96156.78;;;17.34;78.50
44751;BME280;30477;48.224;11.470;2022-08-21T00:31:39;96155.00;;;17.35;78.55
44751;BME280;30477;48.224;11.470;2022-08-21T00:34:04;96151.53;;;17.34;78.20
44751;BME280;30477;48.224;11.470;2022-08-21T00:36:30;96156.78;;;17.34;78.08
44751;BME280;30477;48.224;11.470;2022-08-21T00:38:56;96152.25;;;17.28;78.50
44751;BME280;30477;48.224;11.470;2022-08-21T00:41:22;96148.03;;;17.27;78.42
44751;BME280;30477;48.224;11.470;2022-08-21T00:43:48;96151.28;;;17.29;78.37
44751;BME280;30477;48.224;11.470;2022-08-21T00:46:14;96147.66;;;17.30;77.97
44751;BME280;30477;48.224;11.470;2022-08-21T00:48:39;96148.41;;;17.24;78.17
44751;BME280;30477;48.224;11.470;2022-08-21T00:51:08;96155.41;;;17.23;78.11
44751;BME280;30477;48.224;11.470;2022-08-21T00:53:38;96156.59;;;17.21;78.07
44751;BME280;30477;48.224;11.470;2022-08-21T00:56:05;96153.81;;;17.22;78.06
44751;BME280;30477;48.224;11.470;2022-08-21T00:58:31;96144.88;;;17.17;77.97
44751;BME280;30477;48.224;11.470;2022-08-21T01:00:59;96144.53;;;17.20;77.63
44751;BME280;30477;48.224;11.470;2022-08-21T01:03:26;96145.66;;;17.17;77.94
44751;BME280;30477;48.224;11.470;2022-08-21T01:05:52;96140.97;;;17.13;77.56
44751;BME280;30477;48.224;11.470;2022-08-21T01:08:19;96139.72;;;17.09;77.90
44751;BME280;30477;48.224;11.470;2022-08-21T01:10:46;96133.22;;;17.04;77.72
44751;BME280;30477;48.224;11.470;2022-08-21T01:13:14;96128.63;;;17.07;77.94
44751;BME280;30477;48.224;11.470;2022-08-21T01:15:43;96134.84;;;17.06;77.69
44751;BME280;30477;48.224;11.470;2022-08-21T01:18:10;96131.78;;;17.02;77.75
44751;BME280;30477;48.224;11.470;2022-08-21T01:20:38;96129.97;;;17.02;77.75
44751;BME280;30477;48.224;11.470;2022-08-21T01:23:05;96133.94;;;16.98;77.68
44751;BME280;30477;48.224;11.470;2022-08-21T01:25:31;96127.44;;;16.94;77.77
44751;BME280;30477;48.224;11.470;2022-08-21T01:27:59;96126.53;;;16.87;77.81
44751;BME280;30477;48.224;11.470;2022-08-21T01:30:27;96130.75;;;16.88;78.10
44751;BME280;30477;48.224;11.470;2022-08-21T01:32:53;96128.97;;;16.89;77.62
44751;BME280;30477;48.224;11.470;2022-08-21T01:35:20;96130.47;;;16.83;77.83
44751;BME280;30477;48.224;11.470;2022-08-21T01:37:46;96126.47;;;16.72;77.89
44751;BME280;30477;48.224;11.470;2022-08-21T01:40:13;96127.63;;;16.70;77.96
44751;BME280;30477;48.224;11.470;2022-08-21T01:42:42;96126.31;;;16.74;78.34
44751;BME280;30477;48.224;11.470;2022-08-21T01:45:09;96121.88;;;16.74;78.09
44751;BME280;30477;48.224;11.470;2022-08-21T01:47:35;96125.13;;;16.76;78.26
44751;BME280;30477;48.224;11.470;2022-08-21T01:50:01;96137.47;;;16.68;78.02
44751;BME280;30477;48.224;11.470;2022-08-21T01:52:26;96129.63;;;16.68;78.29
44751;BME280;30477;48.224;11.470;2022-08-21T01:54:51;96125.47;;;16.73;77.99
44751;BME280;30477;48.224;11.470;2022-08-21T01:57:17;96128.03;;;16.81;78.12
44751;BME280;30477;48.224;11.470;2022-08-21T01:59:43;96123.94;;;16.79;77.60
44751;BME280;30477;48.224;11.470;2022-08-21T02:02:09;96123.06;;;16.72;77.90
44751;BME280;30477;48.224;11.470;2022-08-21T02:04:34;96117.63;;;16.73;78.01
44751;BME280;30477;48.224;11.470;2022-08-21T02:07:00;96119.25;;;16.74;77.62
44751;BME280;30477;48.224;11.470;2022-08-21T02:09:26;96116.28;;;16.77;77.64
44751;BME280;30477;48.224;11.470;2022-08-21T02:11:52;96109.63;;;16.75;77.30
44751;BME280;30477;48.224;11.470;2022-08-21T02:14:18;96106.91;;;16.68;77.35
44751;BME280;30477;48.224;11.470;2022-08-21T02:16:44;96110.84;;;16.64;77.38
44751;BME280;30477;48.224;11.470;2022-08-21T02:19:11;96105.16;;;16.60;77.74
44751;BME280;30477;48.224;11.470;2022-08-21T02:21:37;96105.63;;;16.64;77.95
44751;BME280;30477;48.224;11.470;2022-08-21T02:24:03;96109.69;;;16.67;77.72
44751;BME280;30477;48.224;11.470;2022-08-21T02:26:29;96109.56;;;16.60;77.60
44751;BME280;30477;48.224;11.470;2022-08-21T02:28:55;96111.03;;;16.62;77.64
44751;BME280;30477;48.224;11.470;2022-08-21T02:31:20;96106.00;;;16.61;77.65
44751;BME280;30477;48.224;11.470;2022-08-21T02:33:45;96109.94;;;16.57;77.60
44751;BME280;30477;48.224;11.470;2022-08-21T02:36:11;96113.44;;;16.49;77.27
44751;BME280;30477;48.224;11.470;2022-08-21T02:38:38;96111.16;;;16.46;77.34
44751;BME280;30477;48.224;11.470;2022-08-21T02:41:16;96114.13;;;16.43;77.54
44751;BME280;30477;48.224;11.470;2022-08-21T02:43:42;96114.50;;;16.40;77.50
44751;BME280;30477;48.224;11.470;2022-08-21T02:46:10;96111.41;;;16.36;77.75
44751;BME280;30477;48.224;11.470;2022-08-21T02:48:37;96102.00;;;16.27;77.67
44751;BME280;30477;48.224;11.470;2022-08-21T02:53:31;96105.88;;;16.08;78.21
44751;BME280;30477;48.224;11.470;2022-08-21T02:55:57;96103.16;;;16.01;78.14
44751;BME280;30477;48.224;11.470;2022-08-21T02:58:27;96102.34;;;16.01;78.98
44751;BME280;30477;48.224;11.470;2022-08-21T03:00:53;96098.03;;;16.08;78.84
44751;BME280;30477;48.224;11.470;2022-08-21T03:03:19;96099.03;;;16.07;78.38
44751;BME280;30477;48.224;11.470;2022-08-21T03:05:46;96102.28;;;16.09;78.75
44751;BME280;30477;48.224;11.470;2022-08-21T03:08:13;96103.47;;;16.07;78.08
44751;BME280;30477;48.224;11.470;2022-08-21T03:10:43;96107.84;;;16.06;78.87
44751;BME280;30477;48.224;11.470;2022-08-21T03:13:09;96114.88;;;16.06;78.50
44751;BME280;30477;48.224;11.470;2022-08-21T03:15:35;96113.44;;;16.03;78.63
44751;BME280;30477;48.224;11.470;2022-08-21T03:18:01;96107.41;;;16.02;78.36
44751;BME280;30477;48.224;11.470;2022-08-21T03:20:27;96105.28;;;15.98;78.25
44751;BME280;30477;48.224;11.470;2022-08-21T03:22:54;96106.69;;;15.86;78.77
44751;BME280;30477;48.224;11.470;2022-08-21T03:25:20;96112.81;;;15.93;78.99
44751;BME280;30477;48.224;11.470;2022-08-21T03:27:46;96118.06;;;15.93;78.83
44751;BME280;30477;48.224;11.470;2022-08-21T03:30:13;96120.13;;;15.97;78.64
44751;BME280;30477;48.224;11.470;2022-08-21T03:32:39;96106.63;;;15.94;78.25
44751;BME280;30477;48.224;11.470;2022-08-21T03:35:06;96109.97;;;15.71;78.75
44751;BME280;30477;48.224;11.470;2022-08-21T03:37:32;96114.56;;;15.77;78.75
44751;BME280;30477;48.224;11.470;2022-08-21T03:39:57;96110.78;;;15.80;78.94
44751;BME280;30477;48.224;11.470;2022-08-21T03:42:23;96105.72;;;15.78;78.78
44751;BME280;30477;48.224;11.470;2022-08-21T03:44:48;96107.81;;;15.83;79.11
44751;BME280;30477;48.224;11.470;2022-08-21T03:47:13;96108.59;;;15.92;78.83
44751;BME280;30477;48.224;11.470;2022-08-21T03:49:39;96107.38;;;15.79;78.41
44751;BME280;30477;48.224;11.470;2022-08-21T03:52:04;96115.53;;;15.76;78.68
44751;BME280;30477;48.224;11.470;2022-08-21T03:54:30;96111.94;;;15.77;78.57
44751;BME280;30477;48.224;11.470;2022-08-21T03:56:56;96116.53;;;15.75;78.78
44751;BME280;30477;48.224;11.470;2022-08-21T03:59:22;96119.13;;;15.67;78.38
44751;BME280;30477;48.224;11.470;2022-08-21T04:01:56;96115.28;;;15.55;78.75
44751;BME280;30477;48.224;11.470;2022-08-21T04:04:21;96122.94;;;15.56;78.87
44751;BME280;30477;48.224;11.470;2022-08-21T04:06:47;96120.13;;;15.58;79.62
44751;BME280;30477;48.224;11.470;2022-08-21T04:09:12;96123.38;;;15.60;79.41
44751;BME280;30477;48.224;11.470;2022-08-21T04:11:38;96119.13;;;15.67;79.18
44751;BME280;30477;48.224;11.470;2022-08-21T04:14:03;96118.66;;;15.63;78.94
44751;BME280;30477;48.224;11.470;2022-08-21T04:16:29;96120.94;;;15.67;79.06
44751;BME280;30477;48.224;11.470;2022-08-21T04:18:55;96123.06;;;15.63;79.00
44751;BME280;30477;48.224;11.470;2022-08-21T04:21:21;96126.00;;;15.60;79.00
44751;BME280;30477;48.224;11.470;2022-08-21T04:23:46;96136.53;;;15.35;78.86
44751;BME280;30477;48.224;11.470;2022-08-21T04:26:11;96133.59;;;15.30;79.68
44751;BME280;30477;48.224;11.470;2022-08-21T04:28:37;96128.72;;;15.35;79.61
44751;BME280;30477;48.224;11.470;2022-08-21T04:31:02;96137.63;;;15.49;79.79
44751;BME280;30477;48.224;11.470;2022-08-21T04:33:28;96139.41;;;15.57;79.87
44751;BME280;30477;48.224;11.470;2022-08-21T04:35:53;96135.78;;;15.58;79.06
44751;BME280;30477;48.224;11.470;2022-08-21T04:38:19;96143.31;;;15.53;78.90
44751;BME280;30477;48.224;11.470;2022-08-21T04:40:44;96140.88;;;15.51;79.35
44751;BME280;30477;48.224;11.470;2022-08-21T04:43:10;96145.16;;;15.44;79.28
44751;BME280;30477;48.224;11.470;2022-08-21T04:45:37;96148.91;;;15.41;79.22
44751;BME280;30477;48.224;11.470;2022-08-21T04:48:05;96145.47;;;15.41;79.02
44751;BME280;30477;48.224;11.470;2022-08-21T04:50:38;96152.50;;;15.40;79.14
44751;BME280;30477;48.224;11.470;2022-08-21T04:53:08;96157.41;;;15.35;79.05
44751;BME280;30477;48.224;11.470;2022-08-21T04:55:34;96148.59;;;15.36;79.10
44751;BME280;30477;48.224;11.470;2022-08-21T04:58:00;96159.00;;;15.45;79.28
44751;BME280;30477;48.224;11.470;2022-08-21T05:00:26;96156.66;;;15.58;79.32
44751;BME280;30477;48.224;11.470;2022-08-21T05:02:53;96148.81;;;15.66;79.58
44751;BME280;30477;48.224;11.470;2022-08-21T05:05:21;96147.97;;;15.82;79.51
44751;BME280;30477;48.224;11.470;2022-08-21T05:07:47;96149.50;;;15.99;79.43
44751;BME280;30477;48.224;11.470;2022-08-21T05:10:13;96150.56;;;16.13;78.77
44751;BME280;30477;48.224;11.470;2022-08-21T05:12:41;96158.47;;;16.28;78.45
44751;BME280;30477;48.224;11.470;2022-08-21T05:15:07;96147.22;;;16.28;78.02
44751;BME280;30477;48.224;11.470;2022-08-21T05:17:33;96154.69;;;16.31;77.96
44751;BME280;30477;48.224;11.470;2022-08-21T05:19:58;96149.19;;;16.26;77.54
44751;BME280;30477;48.224;11.470;2022-08-21T05:22:24;96152.69;;;16.41;78.22
44751;BME280;30477;48.224;11.470;2022-08-21T05:24:50;96160.91;;;16.76;77.29
44751;BME280;30477;48.224;11.470;2022-08-21T05:27:16;96157.19;;;16.93;77.26
44751;BME280;30477;48.224;11.470;2022-08-21T05:29:42;96159.13;;;17.29;76.80
44751;BME280;30477;48.224;11.470;2022-08-21T05:32:08;96160.84;;;17.52;75.73
44751;BME280;30477;48.224;11.470;2022-08-21T05:34:34;96162.13;;;17.71;75.04
44751;BME280;30477;48.224;11.470;2022-08-21T05:36:59;96165.72;;;17.84;73.92
44751;BME280;30477;48.224;11.470;2022-08-21T05:39:24;96171.75;;;18.00;73.55
44751;BME280;30477;48.224;11.470;2022-08-21T05:41:50;96170.09;;;18.14;72.85
44751;BME280;30477;48.224;11.470;2022-08-21T05:44:15;96165.31;;;18.39;72.75
44751;BME280;30477;48.224;11.470;2022-08-21T05:46:40;96165.31;;;18.60;71.73
44751;BME280;30477;48.224;11.470;2022-08-21T05:49:06;96170.38;;;18.83;71.05
44751;BME280;30477;48.224;11.470;2022-08-21T05:51:31;96177.72;;;18.88;71.23
44751;BME280;30477;48.224;11.470;2022-08-21T05:53:56;96176.00;;;19.02;70.26
44751;BME280;30477;48.224;11.470;2022-08-21T05:56:22;96167.19;;;19.10;69.54
44751;BME280;30477;48.224;11.470;2022-08-21T05:58:47;96169.88;;;19.23;69.83
44751;BME280;30477;48.224;11.470;2022-08-21T06:01:12;96164.22;;;19.54;69.28
44751;BME280;30477;48.224;11.470;2022-08-21T06:03:40;96164.56;;;19.73;68.58
44751;BME280;30477;48.224;11.470;2022-08-21T06:06:06;96164.63;;;19.93;67.74
44751;BME280;30477;48.224;11.470;2022-08-21T06:08:31;96169.97;;;20.13;67.01
44751;BME280;30477;48.224;11.470;2022-08-21T06:10:58;96170.00;;;20.26;66.47
44751;BME280;30477;48.224;11.470;2022-08-21T06:13:25;96167.44;;;20.46;66.39
44751;BME280;30477;48.224;11.470;2022-08-21T06:16:04;96167.25;;;20.54;65.71
44751;BME280;30477;48.224;11.470;2022-08-21T06:18:31;96164.03;;;20.65;65.47
44751;BME280;30477;48.224;11.470;2022-08-21T06:20:57;96161.63;;;20.71;64.70
44751;BME280;30477;48.224;11.470;2022-08-21T06:23:22;96167.28;;;20.81;64.59
44751;BME280;30477;48.224;11.470;2022-08-21T06:25:47;96166.84;;;20.57;63.96
44751;BME280;30477;48.224;11.470;2022-08-21T06:28:13;96163.06;;;20.66;64.63
44751;BME280;30477;48.224;11.470;2022-08-21T06:30:39;96166.88;;;20.97;64.33
44751;BME280;30477;48.224;11.470;2022-08-21T06:33:04;96162.41;;;21.24;63.81
44751;BME280;30477;48.224;11.470;2022-08-21T06:35:31;96158.38;;;21.22;63.34
44751;BME280;30477;48.224;11.470;2022-08-21T06:37:57;96173.38;;;21.15;62.76
44751;BME280;30477;48.224;11.470;2022-08-21T06:40:23;96167.69;;;21.18;63.07
44751;BME280;30477;48.224;11.470;2022-08-21T06:42:48;96162.78;;;21.41;61.81
44751;BME280;30477;48.224;11.470;2022-08-21T06:45:14;96168.47;;;21.52;61.63
44751;BME280;30477;48.224;11.470;2022-08-21T06:47:40;96164.81;;;21.59;61.03
44751;BME280;30477;48.224;11.470;2022-08-21T06:50:06;96163.63;;;21.55;60.56
44751;BME280;30477;48.224;11.470;2022-08-21T06:52:36;96154.72;;;21.36;60.76
44751;BME280;30477;48.224;11.470;2022-08-21T06:55:03;96152.09;;;21.29;60.97
44751;BME280;30477;48.224;11.470;2022-08-21T06:57:29;96159.19;;;21.42;60.33
44751;BME280;30477;48.224;11.470;2022-08-21T06:59:55;96155.50;;;21.50;60.64
44751;BME280;30477;48.224;11.470;2022-08-21T07:02:20;96157.72;;;21.60;59.65
44751;BME280;30477;48.224;11.470;2022-08-21T07:04:45;96160.97;;;21.55;59.34
44751;BME280;30477;48.224;11.470;2022-08-21T07:07:11;96160.75;;;21.70;59.14
44751;BME280;30477;48.224;11.470;2022-08-21T07:09:36;96156.09;;;21.65;59.44
44751;BME280;30477;48.224;11.470;2022-08-21T07:12:02;96148.97;;;21.73;58.53
44751;BME280;30477;48.224;11.470;2022-08-21T07:14:27;96154.47;;;22.16;57.93
44751;BME280;30477;48.224;11.470;2022-08-21T07:16:52;96152.22;;;22.26;56.91
44751;BME280;30477;48.224;11.470;2022-08-21T07:19:18;96152.78;;;22.35;56.60
44751;BME280;30477;48.224;11.470;2022-08-21T07:21:44;96149.94;;;22.68;56.44
44751;BME280;30477;48.224;11.470;2022-08-21T07:24:09;96152.38;;;22.95;55.24
44751;BME280;30477;48.224;11.470;2022-08-21T07:26:35;96145.00;;;22.97;54.41
44751;BME280;30477;48.224;11.470;2022-08-21T07:29:01;96143.41;;;22.96;53.33
44751;BME280;30477;48.224;11.470;2022-08-21T07:31:26;96137.69;;;23.24;54.43
44751;BME280;30477;48.224;11.470;2022-08-21T07:33:52;96134.06;;;23.44;53.42
44751;BME280;30477;48.224;11.470;2022-08-21T07:36:17;96136.72;;;23.62;52.67
44751;BME280;30477;48.224;11.470;2022-08-21T07:38:43;96133.13;;;23.57;52.20
44751;BME280;30477;48.224;11.470;2022-08-21T07:41:21;96142.06;;;23.74;52.64
44751;BME280;30477;48.224;11.470;2022-08-21T07:43:46;96132.38;;;23.86;51.91
44751;BME280;30477;48.224;11.470;2022-08-21T07:46:12;96136.00;;;23.92;51.62
44751;BME280;30477;48.224;11.470;2022-08-21T07:48:38;96131.78;;;24.33;50.85
44751;BME280;30477;48.224;11.470;2022-08-21T07:51:08;96145.94;;;24.39;50.35
44751;BME280;30477;48.224;11.470;2022-08-21T07:53:35;96135.22;;;24.34;49.88
44751;BME280;30477;48.224;11.470;2022-08-21T07:56:00;96129.41;;;24.13;50.08
44751;BME280;30477;48.224;11.470;2022-08-21T07:58:26;96124.88;;;24.02;50.50
44751;BME280;30477;48.224;11.470;2022-08-21T08:00:51;96129.41;;;24.13;50.83
44751;BME280;30477;48.224;11.470;2022-08-21T08:03:17;96131.47;;;24.41;50.69
44751;BME280;30477;48.224;11.470;2022-08-21T08:05:42;96124.91;;;24.44;50.28
44751;BME280;30477;48.224;11.470;2022-08-21T08:08:08;96120.66;;;24.43;50.33
44751;BME280;30477;48.224;11.470;2022-08-21T08:10:33;96121.31;;;24.68;50.08
44751;BME280;30477;48.224;11.470;2022-08-21T08:12:59;96118.91;;;24.79;49.58
44751;BME280;30477;48.224;11.470;2022-08-21T08:15:26;96117.66;;;24.81;49.32
44751;BME280;30477;48.224;11.470;2022-08-21T08:17:52;96130.06;;;24.69;49.43
44751;BME280;30477;48.224;11.470;2022-08-21T08:20:20;96125.81;;;24.80;49.70
44751;BME280;30477;48.224;11.470;2022-08-21T08:22:47;96126.97;;;24.84;49.80
44751;BME280;30477;48.224;11.470;2022-08-21T08:25:13;96126.03;;;24.66;49.40
44751;BME280;30477;48.224;11.470;2022-08-21T08:27:39;96123.63;;;24.77;49.69
44751;BME280;30477;48.224;11.470;2022-08-21T08:30:07;96119.47;;;24.69;49.21
44751;BME280;30477;48.224;11.470;2022-08-21T08:32:33;96123.28;;;24.85;50.31
44751;BME280;30477;48.224;11.470;2022-08-21T08:34:58;96115.81;;;25.17;49.40
44751;BME280;30477;48.224;11.470;2022-08-21T08:37:24;96111.13;;;25.31;49.13
44751;BME280;30477;48.224;11.470;2022-08-21T08:39:49;96119.44;;;25.35;48.73
44751;BME280;30477;48.224;11.470;2022-08-21T08:42:23;96117.00;;;25.33;48.58
44751;BME280;30477;48.224;11.470;2022-08-21T08:44:56;96119.88;;;25.43;48.95
44751;BME280;30477;48.224;11.470;2022-08-21T08:47:24;96114.56;;;25.43;48.45
44751;BME280;30477;48.224;11.470;2022-08-21T08:50:11;96123.19;;;25.50;48.85
44751;BME280;30477;48.224;11.470;2022-08-21T08:52:48;96118.00;;;25.56;48.80
44751;BME280;30477;48.224;11.470;2022-08-21T08:55:33;96116.03;;;25.63;49.21
44751;BME280;30477;48.224;11.470;2022-08-21T08:58:00;96114.88;;;25.70;49.32
44751;BME280;30477;48.224;11.470;2022-08-21T09:00:27;96112.16;;;25.82;48.68
44751;BME280;30477;48.224;11.470;2022-08-21T09:02:57;96115.69;;;25.59;48.63
44751;BME280;30477;48.224;11.470;2022-08-21T09:05:31;96114.38;;;25.73;48.66
44751;BME280;30477;48.224;11.470;2022-08-21T09:16:09;96106.09;;;25.70;48.59
44751;BME280;30477;48.224;11.470;2022-08-21T09:18:57;96111.28;;;25.65;49.44
44751;BME280;30477;48.224;11.470;2022-08-21T09:24:26;96108.81;;;25.99;48.32
44751;BME280;30477;48.224;11.470;2022-08-21T09:27:06;96110.50;;;26.05;48.56
44751;BME280;30477;48.224;11.470;2022-08-21T09:29:33;96104.78;;;26.25;49.10
44751;BME280;30477;48.224;11.470;2022-08-21T09:31:59;96107.38;;;26.08;48.85
44751;BME280;30477;48.224;11.470;2022-08-21T09:34:30;96108.09;;;26.03;49.17
44751;BME280;30477;48.224;11.470;2022-08-21T09:36:57;96105.28;;;26.10;49.17
44751;BME280;30477;48.224;11.470;2022-08-21T09:39:27;96108.13;;;26.20;48.93
44751;BME280;30477;48.224;11.470;2022-08-21T09:41:59;96094.72;;;26.27;48.68
44751;BME280;30477;48.224;11.470;2022-08-21T09:44:28;96095.44;;;26.22;48.69
44751;BME280;30477;48.224;11.470;2022-08-21T09:46:53;96095.13;;;26.19;48.44
44751;BME280;30477;48.224;11.470;2022-08-21T09:51:54;96101.75;;;25.52;49.41
44751;BME280;30477;48.224;11.470;2022-08-21T09:54:26;96099.59;;;25.25;50.42
44751;BME280;30477;48.224;11.470;2022-08-21T09:56:58;96098.41;;;24.86;50.45
44751;BME280;30477;48.224;11.470;2022-08-21T09:59:44;96097.59;;;24.74;51.55
44751;BME280;30477;48.224;11.470;2022-08-21T10:02:21;96090.38;;;24.81;52.07
44751;BME280;30477;48.224;11.470;2022-08-21T10:05:17;96089.91;;;24.30;52.29
44751;BME280;30477;48.224;11.470;2022-08-21T10:07:42;96091.50;;;24.19;53.49
44751;BME280;30477;48.224;11.470;2022-08-21T10:10:14;96087.03;;;24.31;53.25
44751;BME280;30477;48.224;11.470;2022-08-21T10:21:23;96091.00;;;24.52;52.06
44751;BME280;30477;48.224;11.470;2022-08-21T10:26:49;96089.78;;;24.25;52.42
44751;BME280;30477;48.224;11.470;2022-08-21T10:32:12;96082.94;;;24.05;52.44
44751;BME280;30477;48.224;11.470;2022-08-21T10:34:46;96077.81;;;24.22;53.01
44751;BME280;30477;48.224;11.470;2022-08-21T10:40:07;96076.22;;;24.87;52.43
44751;BME280;30477;48.224;11.470;2022-08-21T10:42:52;96076.56;;;25.02;51.75
44751;BME280;30477;48.224;11.470;2022-08-21T10:51:24;96065.28;;;24.95;50.68
44751;BME280;30477;48.224;11.470;2022-08-21T10:56:29;96065.16;;;25.02;49.87
44751;BME280;30477;48.224;11.470;2022-08-21T10:59:15;96070.00;;;24.93;49.86
44751;BME280;30477;48.224;11.470;2022-08-21T11:02:17;96069.06;;;24.64;49.61
44751;BME280;30477;48.224;11.470;2022-08-21T11:04:58;96066.69;;;24.32;49.24
44751;BME280;30477;48.224;11.470;2022-08-21T11:07:36;96064.38;;;24.24;49.61
44751;BME280;30477;48.224;11.470;2022-08-21T11:10:16;96055.84;;;24.34;49.21
44751;BME280;30477;48.224;11.470;2022-08-21T11:12:47;96054.91;;;24.58;49.73
44751;BME280;30477;48.224;11.470;2022-08-21T11:26:28;96037.31;;;24.64;47.51
44751;BME280;30477;48.224;11.470;2022-08-21T11:29:02;96031.91;;;24.70;47.45
44751;BME280;30477;48.224;11.470;2022-08-21T11:35:01;96028.91;;;24.79;45.80
44751;BME280;30477;48.224;11.470;2022-08-21T11:45:49;96025.91;;;24.75;44.88
44751;BME280;30477;48.224;11.470;2022-08-21T11:48:36;96034.66;;;24.76;44.72
44751;BME280;30477;48.224;11.470;2022-08-21T11:51:12;96026.25;;;24.79;44.23
44751;BME280;30477;48.224;11.470;2022-08-21T11:53:46;96027.28;;;24.78;44.12
44751;BME280;30477;48.224;11.470;2022-08-21T11:56:23;96021.06;;;24.84;45.10
44751;BME280;30477;48.224;11.470;2022-08-21T11:58:56;96024.28;;;24.86;43.48
44751;BME280;30477;48.224;11.470;2022-08-21T12:01:27;96020.38;;;24.77;42.56
44751;BME280;30477;48.224;11.470;2022-08-21T12:04:27;96008.84;;;24.47;41.22
44751;BME280;30477;48.224;11.470;2022-08-21T12:06:53;96007.75;;;24.55;41.86
44751;BME280;30477;48.224;11.470;2022-08-21T12:12:04;96014.75;;;24.73;44.26
44751;BME280;30477;48.224;11.470;2022-08-21T12:17:07;96011.63;;;24.88;44.92
44751;BME280;30477;48.224;11.470;2022-08-21T12:19:32;96007.16;;;24.88;45.03
44751;BME280;30477;48.224;11.470;2022-08-21T12:29:50;95997.50;;;24.82;41.96
44751;BME280;30477;48.224;11.470;2022-08-21T12:37:27;95995.78;;;24.76;42.52
44751;BME280;30477;48.224;11.470;2022-08-21T12:39:58;95996.56;;;24.77;41.41
44751;BME280;30477;48.224;11.470;2022-08-21T12:42:36;95992.06;;;24.89;43.28
44751;BME280;30477;48.224;11.470;2022-08-21T12:45:29;95985.38;;;24.98;43.47
44751;BME280;30477;48.224;11.470;2022-08-21T12:50:26;95975.28;;;24.71;42.04
44751;BME280;30477;48.224;11.470;2022-08-21T12:52:59;95986.81;;;24.65;43.40
44751;BME280;30477;48.224;11.470;2022-08-21T12:55:31;95972.25;;;24.80;42.73
44751;BME280;30477;48.224;11.470;2022-08-21T12:57:57;95974.56;;;24.88;42.27
44751;BME280;30477;48.224;11.470;2022-08-21T13:00:26;95963.41;;;24.86;41.06
44751;BME280;30477;48.224;11.470;2022-08-21T13:02:53;95973.09;;;24.80;41.31
44751;BME280;30477;48.224;11.470;2022-08-21T13:05:36;95965.72;;;24.82;41.28
44751;BME280;30477;48.224;11.470;2022-08-21T13:08:07;95959.28;;;24.78;41.90
44751;BME280;30477;48.224;11.470;2022-08-21T13:10:35;95966.06;;;24.62;41.86
44751;BME280;30477;48.224;11.470;2022-08-21T13:13:08;95965.41;;;24.55;43.02
44751;BME280;30477;48.224;11.470;2022-08-21T13:15:36;95964.56;;;24.66;42.99
44751;BME280;30477;48.224;11.470;2022-08-21T13:18:03;95962.97;;;24.65;42.48
44751;BME280;30477;48.224;11.470;2022-08-21T13:20:36;95964.47;;;24.61;42.44
44751;BME280;30477;48.224;11.470;2022-08-21T13:23:18;95969.78;;;24.61;42.08
44751;BME280;30477;48.224;11.470;2022-08-21T13:25:44;95961.47;;;24.58;42.04
44751;BME280;30477;48.224;11.470;2022-08-21T13:28:12;95964.09;;;24.46;41.70
44751;BME280;30477;48.224;11.470;2022-08-21T13:30:50;95963.06;;;24.47;41.97
44751;BME280;30477;48.224;11.470;2022-08-21T13:33:19;95965.00;;;24.40;41.98
44751;BME280;30477;48.224;11.470;2022-08-21T13:38:34;95954.41;;;24.16;41.77
44751;BME280;30477;48.224;11.470;2022-08-21T13:41:03;95953.03;;;24.14;42.03
44751;BME280;30477;48.224;11.470;2022-08-21T13:43:35;95948.78;;;24.24;42.31
44751;BME280;30477;48.224;11.470;2022-08-21T13:46:07;95949.38;;;24.26;42.33
44751;BME280;30477;48.224;11.470;2022-08-21T13:48:36;95947.97;;;24.36;42.29
44751;BME280;30477;48.224;11.470;2022-08-21T13:51:02;95937.66;;;24.34;42.09
44751;BME280;30477;48.224;11.470;2022-08-21T13:53:44;95938.09;;;24.31;41.83
44751;BME280;30477;48.224;11.470;2022-08-21T13:56:31;95939.84;;;24.25;41.91
44751;BME280;30477;48.224;11.470;2022-08-21T13:58:59;95949.47;;;24.31;41.90
44751;BME280;30477;48.224;11.470;2022-08-21T14:02:09;95938.88;;;24.31;41.89
44751;BME280;30477;48.224;11.470;2022-08-21T14:04:29;95940.28;;;24.22;41.59
44751;BME280;30477;48.224;11.470;2022-08-21T14:06:56;95947.63;;;24.20;42.14
44751;BME280;30477;48.224;11.470;2022-08-21T14:09:34;95951.00;;;24.27;42.50
44751;BME280;30477;48.224;11.470;2022-08-21T14:12:14;95954.06;;;24.24;41.69
44751;BME280;30477;48.224;11.470;2022-08-21T14:14:41;95945.13;;;24.25;42.04
44751;BME280;30477;48.224;11.470;2022-08-21T14:17:09;95948.78;;;24.24;41.30
44751;BME280;30477;48.224;11.470;2022-08-21T14:22:29;95948.56;;;24.26;41.64
44751;BME280;30477;48.224;11.470;2022-08-21T14:25:12;95936.63;;;24.23;41.93
44751;BME280;30477;48.224;11.470;2022-08-21T14:27:43;95932.47;;;24.27;41.64
44751;BME280;30477;48.224;11.470;2022-08-21T14:30:20;95940.97;;;24.29;42.87